sensor_id;sensor_type;location;lat;lon;timestamp;temperature;humidity
71184;DHT22;58887;51.980;4.464;2022-12-18T00:01:25;-1.87;86.94
71184;DHT22;58887;51.980;4.464;2022-12-18T00:03:52;-1.75;86.79
71184;DHT22;58887;51.980;4.464;2022-12-18T00:06:19;-1.64;86.57
71184;DHT22;58887;51.980;4.464;2022-12-18T00:08:45;-1.74;86.56
71184;DHT22;58887;51.980;4.464;2022-12-18T00:11:13;-1.82;86.68
71184;DHT22;58887;51.980;4.464;2022-12-18T00:13:40;-1.77;86.79
71184;DHT22;58887;51.980;4.464;2022-12-18T00:16:09;-1.61;86.41
71184;DHT22;58887;51.980;4.464;2022-12-18T00:18:35;-1.68;86.40
71184;DHT22;58887;51.980;4.464;2022-12-18T00:21:06;-1.68;86.21
71184;DHT22;58887;51.980;4.464;2022-12-18T00:23:33;-1.74;86.32
71184;DHT22;58887;51.980;4.464;2022-12-18T00:26:01;-1.81;86.24
71184;DHT22;58887;51.980;4.464;2022-12-18T00:28:27;-1.61;86.01
71184;DHT22;58887;51.980;4.464;2022-12-18T00:31:08;-1.80;85.72
71184;DHT22;58887;51.980;4.464;2022-12-18T00:33:34;-1.72;85.62
71184;DHT22;58887;51.980;4.464;2022-12-18T00:36:01;-1.70;85.48
71184;DHT22;58887;51.980;4.464;2022-12-18T00:38:27;-1.75;85.28
71184;DHT22;58887;51.980;4.464;2022-12-18T00:40:53;-1.81;85.25
71184;DHT22;58887;51.980;4.464;2022-12-18T00:43:18;-1.90;85.30
71184;DHT22;58887;51.980;4.464;2022-12-18T00:45:44;-1.90;85.43
71184;DHT22;58887;51.980;4.464;2022-12-18T00:48:09;-1.91;85.45
71184;DHT22;58887;51.980;4.464;2022-12-18T00:50:34;-2.06;85.91
71184;DHT22;58887;51.980;4.464;2022-12-18T00:53:00;-2.06;85.98
71184;DHT22;58887;51.980;4.464;2022-12-18T00:55:25;-2.03;85.65
71184;DHT22;58887;51.980;4.464;2022-12-18T00:57:51;-2.06;85.50
71184;DHT22;58887;51.980;4.464;2022-12-18T01:00:17;-2.02;85.64
71184;DHT22;58887;51.980;4.464;2022-12-18T01:02:43;-2.19;85.89
71184;DHT22;58887;51.980;4.464;2022-12-18T01:05:11;-2.29;86.83
71184;DHT22;58887;51.980;4.464;2022-12-18T01:07:37;-2.28;86.43
71184;DHT22;58887;51.980;4.464;2022-12-18T01:10:04;-2.22;86.28
71184;DHT22;58887;51.980;4.464;2022-12-18T01:12:29;-2.19;85.94
71184;DHT22;58887;51.980;4.464;2022-12-18T01:14:55;-2.11;85.60
71184;DHT22;58887;51.980;4.464;2022-12-18T01:17:21;-2.06;85.26
71184;DHT22;58887;51.980;4.464;2022-12-18T01:19:46;-2.13;85.27
71184;DHT22;58887;51.980;4.464;2022-12-18T01:22:12;-2.12;85.00
71184;DHT22;58887;51.980;4.464;2022-12-18T01:24:37;-2.18;85.08
71184;DHT22;58887;51.980;4.464;2022-12-18T01:27:03;-2.25;85.18
71184;DHT22;58887;51.980;4.464;2022-12-18T01:29:28;-2.28;85.41
71184;DHT22;58887;51.980;4.464;2022-12-18T01:31:57;-2.21;85.01
71184;DHT22;58887;51.980;4.464;2022-12-18T01:34:25;-2.16;84.84
71184;DHT22;58887;51.980;4.464;2022-12-18T01:36:50;-2.19;84.82
71184;DHT22;58887;51.980;4.464;2022-12-18T01:39:18;-2.18;84.61
71184;DHT22;58887;51.980;4.464;2022-12-18T01:41:45;-2.26;84.75
71184;DHT22;58887;51.980;4.464;2022-12-18T01:45:04;-2.23;84.69
71184;DHT22;58887;51.980;4.464;2022-12-18T01:47:32;-2.33;84.67
71184;DHT22;58887;51.980;4.464;2022-12-18T01:50:10;-2.40;84.94
71184;DHT22;58887;51.980;4.464;2022-12-18T01:52:40;-2.29;84.60
71184;DHT22;58887;51.980;4.464;2022-12-18T01:55:08;-2.28;84.68
71184;DHT22;58887;51.980;4.464;2022-12-18T01:57:34;-2.29;84.34
71184;DHT22;58887;51.980;4.464;2022-12-18T02:00:08;-2.35;84.49
71184;DHT22;58887;51.980;4.464;2022-12-18T02:02:35;-2.45;85.10
71184;DHT22;58887;51.980;4.464;2022-12-18T02:05:02;-2.33;84.78
71184;DHT22;58887;51.980;4.464;2022-12-18T02:08:10;-2.33;84.45
71184;DHT22;58887;51.980;4.464;2022-12-18T02:13:45;-2.31;84.55
71184;DHT22;58887;51.980;4.464;2022-12-18T02:19:08;-2.32;85.06
71184;DHT22;58887;51.980;4.464;2022-12-18T02:21:55;-2.29;85.05
71184;DHT22;58887;51.980;4.464;2022-12-18T02:24:39;-2.23;84.84
71184;DHT22;58887;51.980;4.464;2022-12-18T02:27:09;-2.08;84.51
71184;DHT22;58887;51.980;4.464;2022-12-18T02:29:44;-2.02;84.36
71184;DHT22;58887;51.980;4.464;2022-12-18T02:32:15;-1.94;84.22
71184;DHT22;58887;51.980;4.464;2022-12-18T02:34:44;-1.97;84.09
71184;DHT22;58887;51.980;4.464;2022-12-18T02:37:15;-2.08;84.39
71184;DHT22;58887;51.980;4.464;2022-12-18T02:39:44;-2.06;84.54
71184;DHT22;58887;51.980;4.464;2022-12-18T02:42:11;-2.06;84.52
71184;DHT22;58887;51.980;4.464;2022-12-18T02:44:46;-2.11;84.97
71184;DHT22;58887;51.980;4.464;2022-12-18T02:47:15;-2.09;84.68
71184;DHT22;58887;51.980;4.464;2022-12-18T02:49:57;-2.11;84.91
71184;DHT22;58887;51.980;4.464;2022-12-18T02:52:57;-2.21;85.04
71184;DHT22;58887;51.980;4.464;2022-12-18T02:58:46;-2.23;85.18
71184;DHT22;58887;51.980;4.464;2022-12-18T03:03:56;-2.15;85.02
71184;DHT22;58887;51.980;4.464;2022-12-18T03:06:28;-2.16;84.55
71184;DHT22;58887;51.980;4.464;2022-12-18T03:09:00;-2.35;84.95
71184;DHT22;58887;51.980;4.464;2022-12-18T03:11:33;-2.42;84.94
71184;DHT22;58887;51.980;4.464;2022-12-18T03:14:21;-2.40;85.02
71184;DHT22;58887;51.980;4.464;2022-12-18T03:16:52;-2.49;85.31
71184;DHT22;58887;51.980;4.464;2022-12-18T03:19:22;-2.45;85.59
71184;DHT22;58887;51.980;4.464;2022-12-18T03:21:53;-2.45;85.41
71184;DHT22;58887;51.980;4.464;2022-12-18T03:24:22;-2.52;85.82
71184;DHT22;58887;51.980;4.464;2022-12-18T03:26:53;-2.49;85.53
71184;DHT22;58887;51.980;4.464;2022-12-18T03:29:43;-2.54;85.54
71184;DHT22;58887;51.980;4.464;2022-12-18T03:32:21;-2.52;85.36
71184;DHT22;58887;51.980;4.464;2022-12-18T03:34:51;-2.61;85.30
71184;DHT22;58887;51.980;4.464;2022-12-18T03:37:19;-2.54;85.01
71184;DHT22;58887;51.980;4.464;2022-12-18T03:39:44;-2.56;84.78
71184;DHT22;58887;51.980;4.464;2022-12-18T03:42:36;-2.67;84.77
71184;DHT22;58887;51.980;4.464;2022-12-18T03:50:46;-2.67;84.12
71184;DHT22;58887;51.980;4.464;2022-12-18T03:55:57;-2.76;83.95
71184;DHT22;58887;51.980;4.464;2022-12-18T03:58:27;-2.77;83.84
71184;DHT22;58887;51.980;4.464;2022-12-18T04:00:58;-2.90;83.59
71184;DHT22;58887;51.980;4.464;2022-12-18T04:03:27;-3.01;83.57
71184;DHT22;58887;51.980;4.464;2022-12-18T04:05:56;-3.00;83.73
71184;DHT22;58887;51.980;4.464;2022-12-18T04:08:23;-3.05;83.62
71184;DHT22;58887;51.980;4.464;2022-12-18T04:10:49;-3.02;83.36
71184;DHT22;58887;51.980;4.464;2022-12-18T04:13:43;-3.01;83.39
71184;DHT22;58887;51.980;4.464;2022-12-18T04:16:08;-3.08;83.43
71184;DHT22;58887;51.980;4.464;2022-12-18T04:18:35;-3.12;83.44
71184;DHT22;58887;51.980;4.464;2022-12-18T04:21:01;-3.21;83.45
71184;DHT22;58887;51.980;4.464;2022-12-18T04:23:27;-3.25;83.33
71184;DHT22;58887;51.980;4.464;2022-12-18T04:25:54;-3.19;83.17
71184;DHT22;58887;51.980;4.464;2022-12-18T04:28:20;-3.27;83.27
71184;DHT22;58887;51.980;4.464;2022-12-18T04:30:48;-3.32;83.34
71184;DHT22;58887;51.980;4.464;2022-12-18T04:33:14;-3.34;83.45
71184;DHT22;58887;51.980;4.464;2022-12-18T04:35:43;-3.39;83.31
71184;DHT22;58887;51.980;4.464;2022-12-18T04:38:09;-3.41;83.39
71184;DHT22;58887;51.980;4.464;2022-12-18T04:40:36;-3.35;83.31
71184;DHT22;58887;51.980;4.464;2022-12-18T04:43:03;-3.42;83.16
71184;DHT22;58887;51.980;4.464;2022-12-18T04:45:30;-3.49;82.99
71184;DHT22;58887;51.980;4.464;2022-12-18T04:47:59;-3.58;83.01
71184;DHT22;58887;51.980;4.464;2022-12-18T04:50:24;-3.62;82.99
71184;DHT22;58887;51.980;4.464;2022-12-18T04:52:50;-3.64;83.29
71184;DHT22;58887;51.980;4.464;2022-12-18T04:55:16;-3.66;83.55
71184;DHT22;58887;51.980;4.464;2022-12-18T04:57:41;-3.62;83.29
71184;DHT22;58887;51.980;4.464;2022-12-18T05:00:07;-3.55;83.04
71184;DHT22;58887;51.980;4.464;2022-12-18T05:02:33;-3.60;83.62
71184;DHT22;58887;51.980;4.464;2022-12-18T05:04:58;-3.60;83.61
71184;DHT22;58887;51.980;4.464;2022-12-18T05:07:24;-3.50;83.43
71184;DHT22;58887;51.980;4.464;2022-12-18T05:09:49;-3.49;83.27
71184;DHT22;58887;51.980;4.464;2022-12-18T05:12:15;-3.43;83.04
71184;DHT22;58887;51.980;4.464;2022-12-18T05:14:40;-3.45;82.83
71184;DHT22;58887;51.980;4.464;2022-12-18T05:17:06;-3.52;82.61
71184;DHT22;58887;51.980;4.464;2022-12-18T05:19:31;-3.59;82.88
71184;DHT22;58887;51.980;4.464;2022-12-18T05:21:57;-3.63;83.00
71184;DHT22;58887;51.980;4.464;2022-12-18T05:24:22;-3.62;82.86
71184;DHT22;58887;51.980;4.464;2022-12-18T05:26:48;-3.64;82.80
71184;DHT22;58887;51.980;4.464;2022-12-18T05:29:13;-3.64;82.55
71184;DHT22;58887;51.980;4.464;2022-12-18T05:31:39;-3.63;82.64
71184;DHT22;58887;51.980;4.464;2022-12-18T05:34:05;-3.52;82.54
71184;DHT22;58887;51.980;4.464;2022-12-18T05:36:30;-3.52;82.16
71184;DHT22;58887;51.980;4.464;2022-12-18T05:38:56;-3.56;82.16
71184;DHT22;58887;51.980;4.464;2022-12-18T05:41:21;-3.64;82.56
71184;DHT22;58887;51.980;4.464;2022-12-18T05:43:47;-3.62;82.57
71184;DHT22;58887;51.980;4.464;2022-12-18T05:46:15;-3.58;82.39
71184;DHT22;58887;51.980;4.464;2022-12-18T05:48:43;-3.56;82.11
71184;DHT22;58887;51.980;4.464;2022-12-18T05:51:12;-3.62;82.28
71184;DHT22;58887;51.980;4.464;2022-12-18T05:53:40;-3.62;82.13
71184;DHT22;58887;51.980;4.464;2022-12-18T05:56:09;-3.70;82.29
71184;DHT22;58887;51.980;4.464;2022-12-18T05:58:35;-3.66;82.15
71184;DHT22;58887;51.980;4.464;2022-12-18T06:01:13;-3.72;82.09
71184;DHT22;58887;51.980;4.464;2022-12-18T06:03:40;-3.73;82.05
71184;DHT22;58887;51.980;4.464;2022-12-18T06:06:21;-3.73;81.76
71184;DHT22;58887;51.980;4.464;2022-12-18T06:08:49;-3.70;81.61
71184;DHT22;58887;51.980;4.464;2022-12-18T06:11:18;-3.74;81.82
71184;DHT22;58887;51.980;4.464;2022-12-18T06:13:44;-3.76;81.71
71184;DHT22;58887;51.980;4.464;2022-12-18T06:16:10;-3.84;81.85
71184;DHT22;58887;51.980;4.464;2022-12-18T06:18:35;-3.86;81.55
71184;DHT22;58887;51.980;4.464;2022-12-18T06:21:04;-3.81;81.48
71184;DHT22;58887;51.980;4.464;2022-12-18T06:23:30;-3.90;81.52
71184;DHT22;58887;51.980;4.464;2022-12-18T06:25:55;-3.84;81.52
71184;DHT22;58887;51.980;4.464;2022-12-18T06:28:21;-3.87;81.25
71184;DHT22;58887;51.980;4.464;2022-12-18T06:30:48;-3.89;81.17
71184;DHT22;58887;51.980;4.464;2022-12-18T06:33:15;-3.90;80.83
71184;DHT22;58887;51.980;4.464;2022-12-18T06:35:40;-3.91;81.07
71184;DHT22;58887;51.980;4.464;2022-12-18T06:38:06;-3.86;81.02
71184;DHT22;58887;51.980;4.464;2022-12-18T06:40:32;-3.89;81.14
71184;DHT22;58887;51.980;4.464;2022-12-18T06:42:58;-3.89;81.07
71184;DHT22;58887;51.980;4.464;2022-12-18T06:45:23;-3.86;80.92
71184;DHT22;58887;51.980;4.464;2022-12-18T06:47:49;-3.86;80.73
71184;DHT22;58887;51.980;4.464;2022-12-18T06:50:15;-3.87;80.66
71184;DHT22;58887;51.980;4.464;2022-12-18T06:52:40;-3.91;80.94
71184;DHT22;58887;51.980;4.464;2022-12-18T06:55:07;-3.84;81.06
71184;DHT22;58887;51.980;4.464;2022-12-18T06:57:36;-3.83;80.68
71184;DHT22;58887;51.980;4.464;2022-12-18T07:00:03;-3.83;80.82
71184;DHT22;58887;51.980;4.464;2022-12-18T07:02:29;-3.86;80.89
71184;DHT22;58887;51.980;4.464;2022-12-18T07:04:54;-3.80;80.99
71184;DHT22;58887;51.980;4.464;2022-12-18T07:07:20;-3.80;80.90
71184;DHT22;58887;51.980;4.464;2022-12-18T07:09:45;-3.83;80.74
71184;DHT22;58887;51.980;4.464;2022-12-18T07:12:11;-3.89;81.16
71184;DHT22;58887;51.980;4.464;2022-12-18T07:14:36;-3.94;81.23
71184;DHT22;58887;51.980;4.464;2022-12-18T07:17:02;-3.89;81.28
71184;DHT22;58887;51.980;4.464;2022-12-18T07:19:27;-3.87;81.17
71184;DHT22;58887;51.980;4.464;2022-12-18T07:21:52;-3.87;80.74
71184;DHT22;58887;51.980;4.464;2022-12-18T07:24:18;-3.87;81.18
71184;DHT22;58887;51.980;4.464;2022-12-18T07:26:46;-3.83;80.91
71184;DHT22;58887;51.980;4.464;2022-12-18T07:29:11;-3.87;81.43
71184;DHT22;58887;51.980;4.464;2022-12-18T07:31:37;-3.80;81.22
71184;DHT22;58887;51.980;4.464;2022-12-18T07:34:02;-3.81;81.12
71184;DHT22;58887;51.980;4.464;2022-12-18T07:36:28;-3.76;80.91
71184;DHT22;58887;51.980;4.464;2022-12-18T07:38:53;-3.62;80.60
71184;DHT22;58887;51.980;4.464;2022-12-18T07:41:19;-3.59;80.27
71184;DHT22;58887;51.980;4.464;2022-12-18T07:43:45;-3.64;80.37
71184;DHT22;58887;51.980;4.464;2022-12-18T07:46:12;-3.55;80.00
71184;DHT22;58887;51.980;4.464;2022-12-18T07:48:40;-3.55;79.79
71184;DHT22;58887;51.980;4.464;2022-12-18T07:51:06;-3.55;79.84
71184;DHT22;58887;51.980;4.464;2022-12-18T07:53:33;-3.60;79.93
71184;DHT22;58887;51.980;4.464;2022-12-18T07:56:01;-3.60;79.85
71184;DHT22;58887;51.980;4.464;2022-12-18T07:58:29;-3.66;79.96
71184;DHT22;58887;51.980;4.464;2022-12-18T08:00:54;-3.58;79.87
71184;DHT22;58887;51.980;4.464;2022-12-18T08:03:27;-3.53;79.61
71184;DHT22;58887;51.980;4.464;2022-12-18T08:05:52;-3.56;79.70
71184;DHT22;58887;51.980;4.464;2022-12-18T08:08:17;-3.55;79.75
71184;DHT22;58887;51.980;4.464;2022-12-18T08:10:43;-3.66;80.03
71184;DHT22;58887;51.980;4.464;2022-12-18T08:13:08;-3.64;80.33
71184;DHT22;58887;51.980;4.464;2022-12-18T08:15:34;-3.60;80.10
71184;DHT22;58887;51.980;4.464;2022-12-18T08:17:59;-3.58;80.12
71184;DHT22;58887;51.980;4.464;2022-12-18T08:20:25;-3.50;80.01
71184;DHT22;58887;51.980;4.464;2022-12-18T08:22:50;-3.46;79.74
71184;DHT22;58887;51.980;4.464;2022-12-18T08:25:15;-3.42;79.91
71184;DHT22;58887;51.980;4.464;2022-12-18T08:27:41;-3.45;79.92
71184;DHT22;58887;51.980;4.464;2022-12-18T08:30:07;-3.53;79.95
71184;DHT22;58887;51.980;4.464;2022-12-18T08:32:33;-3.34;79.73
71184;DHT22;58887;51.980;4.464;2022-12-18T08:34:58;-3.32;79.33
71184;DHT22;58887;51.980;4.464;2022-12-18T08:37:24;-3.21;79.26
71184;DHT22;58887;51.980;4.464;2022-12-18T08:39:50;-3.12;79.07
71184;DHT22;58887;51.980;4.464;2022-12-18T08:42:16;-3.02;78.78
71184;DHT22;58887;51.980;4.464;2022-12-18T08:44:59;-2.91;78.52
71184;DHT22;58887;51.980;4.464;2022-12-18T08:47:25;-2.84;78.59
71184;DHT22;58887;51.980;4.464;2022-12-18T08:49:51;-2.81;78.56
71184;DHT22;58887;51.980;4.464;2022-12-18T08:52:17;-2.71;78.17
71184;DHT22;58887;51.980;4.464;2022-12-18T08:54:42;-2.71;77.88
71184;DHT22;58887;51.980;4.464;2022-12-18T08:57:08;-2.76;78.05
71184;DHT22;58887;51.980;4.464;2022-12-18T08:59:33;-2.59;78.31
71184;DHT22;58887;51.980;4.464;2022-12-18T09:01:58;-2.50;77.89
71184;DHT22;58887;51.980;4.464;2022-12-18T09:04:24;-2.52;77.56
71184;DHT22;58887;51.980;4.464;2022-12-18T09:06:49;-2.50;77.66
71184;DHT22;58887;51.980;4.464;2022-12-18T09:09:15;-2.42;77.64
71184;DHT22;58887;51.980;4.464;2022-12-18T09:11:41;-2.32;77.14
71184;DHT22;58887;51.980;4.464;2022-12-18T09:14:06;-2.31;77.47
71184;DHT22;58887;51.980;4.464;2022-12-18T09:16:32;-2.22;77.42
71184;DHT22;58887;51.980;4.464;2022-12-18T09:19:01;-2.25;77.32
71184;DHT22;58887;51.980;4.464;2022-12-18T09:21:30;-2.31;77.53
71184;DHT22;58887;51.980;4.464;2022-12-18T09:23:56;-2.31;77.76
71184;DHT22;58887;51.980;4.464;2022-12-18T09:26:23;-2.28;77.68
71184;DHT22;58887;51.980;4.464;2022-12-18T09:28:50;-2.33;77.85
71184;DHT22;58887;51.980;4.464;2022-12-18T09:31:18;-2.25;78.07
71184;DHT22;58887;51.980;4.464;2022-12-18T09:33:44;-2.25;77.86
71184;DHT22;58887;51.980;4.464;2022-12-18T09:36:13;-2.09;77.12
71184;DHT22;58887;51.980;4.464;2022-12-18T09:38:38;-2.09;77.46
71184;DHT22;58887;51.980;4.464;2022-12-18T09:41:33;-2.18;77.24
71184;DHT22;58887;51.980;4.464;2022-12-18T09:46:41;-2.21;77.83
71184;DHT22;58887;51.980;4.464;2022-12-18T09:49:14;-2.08;77.84
71184;DHT22;58887;51.980;4.464;2022-12-18T09:51:56;-2.16;77.56
71184;DHT22;58887;51.980;4.464;2022-12-18T09:54:30;-1.99;77.56
71184;DHT22;58887;51.980;4.464;2022-12-18T09:56:58;-1.95;77.48
71184;DHT22;58887;51.980;4.464;2022-12-18T09:59:30;-1.97;77.47
71184;DHT22;58887;51.980;4.464;2022-12-18T10:01:57;-1.95;77.44
71184;DHT22;58887;51.980;4.464;2022-12-18T10:04:24;-1.85;77.21
71184;DHT22;58887;51.980;4.464;2022-12-18T10:07:18;-1.68;77.11
71184;DHT22;58887;51.980;4.464;2022-12-18T10:10:06;-1.68;76.79
71184;DHT22;58887;51.980;4.464;2022-12-18T10:12:46;-1.74;77.10
71184;DHT22;58887;51.980;4.464;2022-12-18T10:15:33;-1.51;76.70
71184;DHT22;58887;51.980;4.464;2022-12-18T10:23:15;-1.50;76.79
71184;DHT22;58887;51.980;4.464;2022-12-18T10:26:03;-1.38;76.86
71184;DHT22;58887;51.980;4.464;2022-12-18T10:28:35;-1.40;76.45
71184;DHT22;58887;51.980;4.464;2022-12-18T10:31:01;-1.30;76.77
71184;DHT22;58887;51.980;4.464;2022-12-18T10:33:31;-1.26;76.51
71184;DHT22;58887;51.980;4.464;2022-12-18T10:35:57;-1.15;76.35
71184;DHT22;58887;51.980;4.464;2022-12-18T10:38:32;-1.22;76.24
71184;DHT22;58887;51.980;4.464;2022-12-18T10:41:06;-1.32;76.05
71184;DHT22;58887;51.980;4.464;2022-12-18T10:43:40;-1.25;76.17
71184;DHT22;58887;51.980;4.464;2022-12-18T10:48:40;-1.22;76.18
71184;DHT22;58887;51.980;4.464;2022-12-18T10:51:07;-1.08;76.21
71184;DHT22;58887;51.980;4.464;2022-12-18T10:53:36;-0.99;75.16
71184;DHT22;58887;51.980;4.464;2022-12-18T10:56:04;-0.96;75.66
71184;DHT22;58887;51.980;4.464;2022-12-18T10:58:35;-0.92;75.31
71184;DHT22;58887;51.980;4.464;2022-12-18T11:01:11;-0.91;75.61
71184;DHT22;58887;51.980;4.464;2022-12-18T11:06:16;-0.89;75.03
71184;DHT22;58887;51.980;4.464;2022-12-18T11:08:46;-0.85;75.04
71184;DHT22;58887;51.980;4.464;2022-12-18T11:11:23;-1.08;75.21
71184;DHT22;58887;51.980;4.464;2022-12-18T11:14:15;-0.88;75.14
71184;DHT22;58887;51.980;4.464;2022-12-18T11:16:46;-0.99;75.22
71184;DHT22;58887;51.980;4.464;2022-12-18T11:21:58;-0.81;75.08
71184;DHT22;58887;51.980;4.464;2022-12-18T11:24:32;-0.77;75.25
71184;DHT22;58887;51.980;4.464;2022-12-18T11:27:02;-0.68;74.83
71184;DHT22;58887;51.980;4.464;2022-12-18T11:29:35;-0.80;75.16
71184;DHT22;58887;51.980;4.464;2022-12-18T11:35:30;-0.77;75.51
71184;DHT22;58887;51.980;4.464;2022-12-18T11:38:22;-0.78;74.69
71184;DHT22;58887;51.980;4.464;2022-12-18T11:41:23;-0.71;74.95
71184;DHT22;58887;51.980;4.464;2022-12-18T11:44:15;-0.75;75.17
71184;DHT22;58887;51.980;4.464;2022-12-18T11:46:59;-0.67;75.44
71184;DHT22;58887;51.980;4.464;2022-12-18T11:49:33;-0.74;75.04
71184;DHT22;58887;51.980;4.464;2022-12-18T11:52:17;-0.84;74.96
71184;DHT22;58887;51.980;4.464;2022-12-18T11:54:43;-0.80;75.23
71184;DHT22;58887;51.980;4.464;2022-12-18T12:00:12;-0.82;75.40
71184;DHT22;58887;51.980;4.464;2022-12-18T12:05:48;-0.70;75.00
71184;DHT22;58887;51.980;4.464;2022-12-18T12:08:27;-0.45;74.86
71184;DHT22;58887;51.980;4.464;2022-12-18T12:16:25;-0.26;74.01
71184;DHT22;58887;51.980;4.464;2022-12-18T12:21:51;-0.30;74.68
71184;DHT22;58887;51.980;4.464;2022-12-18T12:27:23;-0.16;74.24
71184;DHT22;58887;51.980;4.464;2022-12-18T12:30:08;-0.12;73.82
71184;DHT22;58887;51.980;4.464;2022-12-18T12:35:20;-0.20;73.75
71184;DHT22;58887;51.980;4.464;2022-12-18T12:40:29;-0.23;74.11
71184;DHT22;58887;51.980;4.464;2022-12-18T12:50:54;-0.05;73.56
71184;DHT22;58887;51.980;4.464;2022-12-18T12:53:32;-0.12;73.78
71184;DHT22;58887;51.980;4.464;2022-12-18T12:56:01;-0.06;73.91
71184;DHT22;58887;51.980;4.464;2022-12-18T12:58:55;0.02;74.06
71184;DHT22;58887;51.980;4.464;2022-12-18T13:02:33;-0.05;73.61
71184;DHT22;58887;51.980;4.464;2022-12-18T13:05:04;0.07;73.73
71184;DHT22;58887;51.980;4.464;2022-12-18T13:07:50;0.00;73.38
71184;DHT22;58887;51.980;4.464;2022-12-18T13:13:09;0.05;73.67
71184;DHT22;58887;51.980;4.464;2022-12-18T13:15:48;0.14;73.49
71184;DHT22;58887;51.980;4.464;2022-12-18T13:18:22;0.00;73.53
71184;DHT22;58887;51.980;4.464;2022-12-18T13:25:55;0.07;73.50
71184;DHT22;58887;51.980;4.464;2022-12-18T13:31:57;0.21;73.49
71184;DHT22;58887;51.980;4.464;2022-12-18T13:36:41;0.14;73.64
71184;DHT22;58887;51.980;4.464;2022-12-18T13:41:45;0.19;74.38
71184;DHT22;58887;51.980;4.464;2022-12-18T13:44:31;0.18;74.33
71184;DHT22;58887;51.980;4.464;2022-12-18T13:46:59;0.17;74.42
71184;DHT22;58887;51.980;4.464;2022-12-18T13:49:38;0.11;74.61
71184;DHT22;58887;51.980;4.464;2022-12-18T13:52:21;0.05;74.45
71184;DHT22;58887;51.980;4.464;2022-12-18T13:54:51;0.18;74.39
71184;DHT22;58887;51.980;4.464;2022-12-18T13:57:36;0.33;73.84
71184;DHT22;58887;51.980;4.464;2022-12-18T14:02:44;0.25;74.14
71184;DHT22;58887;51.980;4.464;2022-12-18T14:05:22;0.39;74.25
71184;DHT22;58887;51.980;4.464;2022-12-18T14:07:48;0.33;73.61
71184;DHT22;58887;51.980;4.464;2022-12-18T14:10:15;0.15;74.16
71184;DHT22;58887;51.980;4.464;2022-12-18T14:12:46;0.26;73.87
71184;DHT22;58887;51.980;4.464;2022-12-18T14:15:30;0.38;73.51
71184;DHT22;58887;51.980;4.464;2022-12-18T14:20:51;0.12;74.00
71184;DHT22;58887;51.980;4.464;2022-12-18T14:23:39;0.18;74.27
71184;DHT22;58887;51.980;4.464;2022-12-18T14:26:22;0.12;74.22
71184;DHT22;58887;51.980;4.464;2022-12-18T14:28:47;0.19;73.94
71184;DHT22;58887;51.980;4.464;2022-12-18T14:31:39;0.19;74.29
71184;DHT22;58887;51.980;4.464;2022-12-18T14:34:05;0.29;73.78
71184;DHT22;58887;51.980;4.464;2022-12-18T14:36:30;0.14;73.95
71184;DHT22;58887;51.980;4.464;2022-12-18T14:38:57;0.24;74.37
71184;DHT22;58887;51.980;4.464;2022-12-18T14:41:24;0.30;74.31
71184;DHT22;58887;51.980;4.464;2022-12-18T14:43:52;0.33;74.05
71184;DHT22;58887;51.980;4.464;2022-12-18T14:48:53;0.44;73.39
71184;DHT22;58887;51.980;4.464;2022-12-18T14:51:28;0.45;73.54
71184;DHT22;58887;51.980;4.464;2022-12-18T14:53:58;0.38;73.48
71184;DHT22;58887;51.980;4.464;2022-12-18T14:56:30;0.29;73.79
71184;DHT22;58887;51.980;4.464;2022-12-18T14:58:59;0.29;73.72
71184;DHT22;58887;51.980;4.464;2022-12-18T15:01:33;0.38;73.94
71184;DHT22;58887;51.980;4.464;2022-12-18T15:04:01;0.39;73.71
71184;DHT22;58887;51.980;4.464;2022-12-18T15:08:59;0.50;73.31
71184;DHT22;58887;51.980;4.464;2022-12-18T15:11:35;0.60;73.13
71184;DHT22;58887;51.980;4.464;2022-12-18T15:14:28;0.56;73.17
71184;DHT22;58887;51.980;4.464;2022-12-18T15:16:58;0.56;73.01
71184;DHT22;58887;51.980;4.464;2022-12-18T15:19:37;0.62;72.83
71184;DHT22;58887;51.980;4.464;2022-12-18T15:22:04;0.65;72.95
71184;DHT22;58887;51.980;4.464;2022-12-18T15:24:31;0.69;72.66
71184;DHT22;58887;51.980;4.464;2022-12-18T15:26:58;0.50;72.96
71184;DHT22;58887;51.980;4.464;2022-12-18T15:29:24;0.39;73.02
71184;DHT22;58887;51.980;4.464;2022-12-18T15:32:02;0.46;72.92
71184;DHT22;58887;51.980;4.464;2022-12-18T15:34:29;0.56;72.58
71184;DHT22;58887;51.980;4.464;2022-12-18T15:36:55;0.50;72.80
71184;DHT22;58887;51.980;4.464;2022-12-18T15:39:20;0.42;72.84
71184;DHT22;58887;51.980;4.464;2022-12-18T15:41:46;0.35;72.70
71184;DHT22;58887;51.980;4.464;2022-12-18T15:44:30;0.48;72.63
71184;DHT22;58887;51.980;4.464;2022-12-18T15:46:57;0.53;72.48
71184;DHT22;58887;51.980;4.464;2022-12-18T15:49:23;0.72;72.33
71184;DHT22;58887;51.980;4.464;2022-12-18T15:51:59;0.69;71.91
71184;DHT22;58887;51.980;4.464;2022-12-18T15:54:26;0.66;72.13
71184;DHT22;58887;51.980;4.464;2022-12-18T15:57:13;0.79;71.78
71184;DHT22;58887;51.980;4.464;2022-12-18T15:59:53;0.59;71.92
71184;DHT22;58887;51.980;4.464;2022-12-18T16:02:21;0.73;71.71
71184;DHT22;58887;51.980;4.464;2022-12-18T16:04:49;0.62;71.91
71184;DHT22;58887;51.980;4.464;2022-12-18T16:07:14;0.76;71.95
71184;DHT22;58887;51.980;4.464;2022-12-18T16:09:40;0.66;72.25
71184;DHT22;58887;51.980;4.464;2022-12-18T16:12:21;0.76;71.76
71184;DHT22;58887;51.980;4.464;2022-12-18T16:14:47;0.79;71.83
71184;DHT22;58887;51.980;4.464;2022-12-18T16:17:14;0.73;72.05
71184;DHT22;58887;51.980;4.464;2022-12-18T16:19:39;0.67;72.28
71184;DHT22;58887;51.980;4.464;2022-12-18T16:22:25;0.73;72.06
71184;DHT22;58887;51.980;4.464;2022-12-18T16:24:52;0.59;72.43
71184;DHT22;58887;51.980;4.464;2022-12-18T16:27:19;0.59;72.71
71184;DHT22;58887;51.980;4.464;2022-12-18T16:29:45;0.55;72.84
71184;DHT22;58887;51.980;4.464;2022-12-18T16:32:17;0.65;72.92
71184;DHT22;58887;51.980;4.464;2022-12-18T16:34:43;0.60;72.73
71184;DHT22;58887;51.980;4.464;2022-12-18T16:37:11;0.63;72.96
71184;DHT22;58887;51.980;4.464;2022-12-18T16:39:38;0.70;73.03
71184;DHT22;58887;51.980;4.464;2022-12-18T16:42:09;0.59;73.00
71184;DHT22;58887;51.980;4.464;2022-12-18T16:44:37;0.69;73.43
71184;DHT22;58887;51.980;4.464;2022-12-18T16:47:03;0.67;72.91
71184;DHT22;58887;51.980;4.464;2022-12-18T16:49:29;0.87;72.56
71184;DHT22;58887;51.980;4.464;2022-12-18T16:51:55;0.80;73.07
71184;DHT22;58887;51.980;4.464;2022-12-18T16:54:20;0.66;73.24
71184;DHT22;58887;51.980;4.464;2022-12-18T16:56:46;0.65;73.59
71184;DHT22;58887;51.980;4.464;2022-12-18T16:59:14;0.67;73.64
71184;DHT22;58887;51.980;4.464;2022-12-18T17:01:40;0.80;73.25
71184;DHT22;58887;51.980;4.464;2022-12-18T17:04:06;0.70;73.35
71184;DHT22;58887;51.980;4.464;2022-12-18T17:06:35;0.70;73.50
71184;DHT22;58887;51.980;4.464;2022-12-18T17:09:04;0.89;73.18
71184;DHT22;58887;51.980;4.464;2022-12-18T17:11:31;0.83;73.54
71184;DHT22;58887;51.980;4.464;2022-12-18T17:13:57;0.81;73.47
71184;DHT22;58887;51.980;4.464;2022-12-18T17:16:24;0.77;73.81
71184;DHT22;58887;51.980;4.464;2022-12-18T17:18:52;0.83;73.84
71184;DHT22;58887;51.980;4.464;2022-12-18T17:21:18;0.86;73.70
71184;DHT22;58887;51.980;4.464;2022-12-18T17:23:44;0.73;74.08
71184;DHT22;58887;51.980;4.464;2022-12-18T17:26:11;0.81;73.81
71184;DHT22;58887;51.980;4.464;2022-12-18T17:28:38;0.83;73.89
71184;DHT22;58887;51.980;4.464;2022-12-18T17:31:17;0.97;73.70